Aérodrome :
LOGIN :

S'inscrire | Disclaimer

   EN    FR    IT 

 










Légende :    VFR   VFR Marginal   IFR   IFR Intensif   IFR Très Intensif
Visi : 
Plafond : 
>= 8 km
>= 3000ft
5 à 8 km
1000 à 3000 ft
1500m à 5 km
500 à 1000 ft
800 à 1500m
200 à 500 ft
< 800m
< 200 ft
Symboles :   Orages  Brouillard  Fortes neiges  Fortes précipitations  Vent > 20 kt
SIGMETs :   Divers  Orages  Givrage  Turbulence  Onde Orograph.  Cendres Volcan.






- Altitude de l'aérodrome : -15 ft
- Code IATA : RTM


EHRD - Rotterdam Zestienhoven

DERNIER METAR :
  • 200055Z AUTO VRB01KT 0600 R06/0750D FZFG NSC M00/M00 Q1047 TEMPO 1500 BCFG

METARs EXPIRÉS :
  • 200025Z AUTO 24002KT 2500 BR NSC 01/00 Q1047 TEMPO 1500 BCFG
  • 192355Z AUTO 26002KT 3400 BR NSC 01/01 Q1047 TEMPO 1500 BCFG
  • 192325Z AUTO 19002KT 5000 BR NCD 01/01 Q1047 BECMG 4000 MIFG
  • 192255Z AUTO VRB02KT 2100 BR NSC 01/01 Q1047 BECMG 4000 MIFG
  • 192225Z AUTO 32003KT 7000 NSC 03/02 Q1047 BECMG 4000 MIFG

TAF TAF EHRD
Valide du 20 à 00h jusqu'au 21 à 06h UTC


192317Z 2000/2106 30003KT 4000 BR MIFG NSC
PROB40 2000/2010 1500 BCFG
PROB40
TEMPO 2000/2009 0500 FG
BECMG 2008/2011 CAVOK
BECMG 2018/2020 5000 BR MIFG
PROB30
TEMPO 2019/2022 1800 BCFG



MET'MAP, la Météo Aéronautique d'un coup d'oeil ! - Copyright ORBIFLY Décembre 2007 - Disclaimer

ORBIFLY MET'MAP TEAM :

Programmation & Développement : Alexandra Zaïnal
Sur une idée originale de : Baudouin d'Aumeries
Assistance à la programmation : Marc-Olivier Méhu
Soutien technique & logistique : Manuel Goepfert

Contact : metmap@orbifly.com




SOURCES & CREDITS :

   NOAA